Time;durP1;ratioP1;P1;durP2;ratioP2;P2;SDS_P1;SDS_P2;PMS_P1;PMS_P2;Temp;Humidity;BMP_temperature;BMP_pressure;BME280_temperature;BME280_humidity;BME280_pressure;Samples;Min_cycle;Max_cycle;Signal;HPM_P1;HPM_P2
2022/08/07 00:01:06;;;;;;;6.90;3.85;;;14.70;99.90;;;;;;5080105;28;20044;-78
2022/08/07 00:03:32;;;;;;;7.53;5.15;;;14.70;99.90;;;;;;5078552;28;20044;-78
2022/08/07 00:05:58;;;;;;;4.45;3.42;;;14.70;99.90;;;;;;5079372;28;20235;-79
2022/08/07 00:08:23;;;;;;;4.22;3.78;;;14.70;99.90;;;;;;5079705;28;20102;-78
2022/08/07 00:10:50;;;;;;;4.50;3.92;;;14.60;99.90;;;;;;5079014;28;20052;-78
2022/08/07 00:13:16;;;;;;;5.22;4.13;;;14.70;99.90;;;;;;5079510;28;20121;-79
2022/08/07 00:15:42;;;;;;;4.75;3.90;;;14.60;99.90;;;;;;5061621;28;20036;-78
2022/08/07 00:18:08;;;;;;;3.33;2.97;;;14.70;99.90;;;;;;5078299;28;20256;-78
2022/08/07 00:20:35;;;;;;;4.10;3.70;;;14.60;99.90;;;;;;5060983;28;20367;-78
2022/08/07 00:23:01;;;;;;;4.32;3.92;;;14.60;99.90;;;;;;5079279;28;20564;-78
2022/08/07 00:25:26;;;;;;;5.28;4.30;;;14.60;99.90;;;;;;5078895;28;20040;-77
2022/08/07 00:27:52;;;;;;;5.13;3.35;;;14.60;99.90;;;;;;5079612;28;20032;-78
2022/08/07 00:30:18;;;;;;;4.53;3.45;;;14.60;99.90;;;;;;5079035;28;20707;-78
2022/08/07 00:32:48;;;;;;;4.93;4.07;;;14.50;99.90;;;;;;5077870;28;20361;-78
2022/08/07 00:35:14;;;;;;;5.03;3.28;;;14.50;99.90;;;;;;5060644;28;20044;-78
2022/08/07 00:37:40;;;;;;;4.30;3.88;;;14.50;99.90;;;;;;5079282;28;20390;-78
2022/08/07 00:40:06;;;;;;;5.13;3.65;;;14.50;99.90;;;;;;5078712;28;20040;-78
2022/08/07 00:42:32;;;;;;;4.68;4.13;;;14.40;99.90;;;;;;5060712;28;20514;-78
2022/08/07 00:44:58;;;;;;;5.22;4.47;;;14.40;99.90;;;;;;5079186;28;20324;-78
2022/08/07 00:47:23;;;;;;;4.35;3.65;;;14.40;99.90;;;;;;5078230;28;20070;-78
2022/08/07 00:49:49;;;;;;;5.28;3.70;;;14.30;99.90;;;;;;5078570;28;20045;-78
2022/08/07 00:52:16;;;;;;;4.60;3.35;;;14.30;99.90;;;;;;5078824;28;20044;-78
2022/08/07 00:54:41;;;;;;;5.15;4.75;;;14.30;99.90;;;;;;5078573;28;20461;-78
2022/08/07 00:57:08;;;;;;;5.78;4.55;;;14.30;99.90;;;;;;5060453;28;20039;-78
2022/08/07 00:59:36;;;;;;;4.25;3.63;;;14.40;99.90;;;;;;5078888;28;20097;-78
2022/08/07 01:02:06;;;;;;;4.70;3.53;;;14.40;99.90;;;;;;5077371;28;20050;-78
2022/08/07 01:04:32;;;;;;;6.43;4.45;;;14.40;99.90;;;;;;5078570;28;20063;-78
2022/08/07 01:06:58;;;;;;;4.15;3.60;;;14.40;99.90;;;;;;5078538;28;20522;-78
2022/08/07 01:09:24;;;;;;;4.80;3.75;;;14.40;99.90;;;;;;5060887;28;20044;-78
2022/08/07 01:11:51;;;;;;;6.07;4.43;;;14.30;99.90;;;;;;5078442;28;20361;-78
2022/08/07 01:14:18;;;;;;;9.00;3.63;;;14.30;99.90;;;;;;5078050;28;20033;-78
2022/08/07 01:16:44;;;;;;;4.20;3.30;;;14.30;99.90;;;;;;5077761;28;20283;-78
2022/08/07 01:19:11;;;;;;;4.75;4.30;;;14.30;99.90;;;;;;5060203;28;20117;-78
2022/08/07 01:21:37;;;;;;;4.53;3.92;;;14.30;99.90;;;;;;5077781;28;20518;-78
2022/08/07 01:24:03;;;;;;;4.28;3.88;;;14.20;99.90;;;;;;5078801;28;20085;-78
2022/08/07 01:26:29;;;;;;;5.55;4.78;;;14.30;99.90;;;;;;5078757;28;20109;-78
2022/08/07 01:28:55;;;;;;;5.38;4.78;;;14.30;99.90;;;;;;5060367;28;20324;-78
2022/08/07 01:31:30;;;;;;;7.82;3.95;;;14.20;99.90;;;;;;5078271;28;20115;-78
2022/08/07 01:33:57;;;;;;;6.88;4.88;;;14.20;99.90;;;;;;5060408;28;20086;-77
2022/08/07 01:36:24;;;;;;;7.72;4.55;;;14.10;99.90;;;;;;5077704;28;20459;-78
2022/08/07 01:38:50;;;;;;;3.53;3.22;;;14.10;99.90;;;;;;5060235;28;20052;-78
2022/08/07 01:41:17;;;;;;;7.38;5.10;;;14.10;99.90;;;;;;5078194;28;20465;-78
2022/08/07 01:43:43;;;;;;;4.65;3.40;;;14.00;99.90;;;;;;5077803;28;20055;-78
2022/08/07 01:46:09;;;;;;;5.50;5.00;;;14.00;99.90;;;;;;5078108;28;20039;-78
2022/08/07 01:48:36;;;;;;;4.85;4.32;;;14.00;99.90;;;;;;5077293;28;20032;-78
2022/08/07 01:51:07;;;;;;;6.97;5.18;;;14.00;99.90;;;;;;5059379;28;20055;-78
2022/08/07 01:53:35;;;;;;;4.88;4.35;;;14.00;99.90;;;;;;5060075;28;20286;-78
2022/08/07 01:56:06;;;;;;;7.88;4.45;;;13.90;99.90;;;;;;5078219;28;20048;-78
2022/08/07 01:58:36;;;;;;;5.38;3.67;;;13.90;99.90;;;;;;5078314;28;20040;-78
2022/08/07 02:01:08;;;;;;;5.90;4.15;;;13.90;99.90;;;;;;5078154;28;20126;-78
2022/08/07 02:03:38;;;;;;;4.47;3.92;;;13.90;99.90;;;;;;5077248;28;20048;-78
2022/08/07 02:06:09;;;;;;;4.05;3.25;;;13.90;99.90;;;;;;5077764;28;20093;-78
2022/08/07 02:08:39;;;;;;;4.03;3.73;;;13.90;99.90;;;;;;5077481;28;20049;-78
2022/08/07 02:11:05;;;;;;;7.65;4.85;;;13.90;99.90;;;;;;5077829;28;20123;-78
2022/08/07 02:13:33;;;;;;;6.97;4.05;;;13.80;99.90;;;;;;5060375;28;20036;-78
2022/08/07 02:16:01;;;;;;;5.18;4.03;;;13.80;99.90;;;;;;5081251;28;20072;-78
2022/08/07 02:18:29;;;;;;;4.28;3.90;;;13.80;99.90;;;;;;5081071;28;20032;-78
2022/08/07 02:20:57;;;;;;;5.65;4.03;;;13.80;99.90;;;;;;5081302;28;20083;-78
2022/08/07 02:23:24;;;;;;;6.25;3.60;;;13.70;99.90;;;;;;5081654;28;20714;-78
2022/08/07 02:25:52;;;;;;;4.53;3.30;;;13.70;99.90;;;;;;5081115;28;20048;-78
2022/08/07 02:28:20;;;;;;;6.38;4.75;;;13.70;99.90;;;;;;5081118;28;20040;-78
2022/08/07 02:30:47;;;;;;;4.68;4.28;;;13.70;99.90;;;;;;5081362;28;20048;-78
2022/08/07 02:33:14;;;;;;;4.70;3.58;;;13.70;99.90;;;;;;5080674;28;20032;-78
2022/08/07 02:35:41;;;;;;;6.43;4.43;;;13.70;99.90;;;;;;5081004;28;20127;-78
2022/08/07 02:38:09;;;;;;;5.63;4.80;;;13.70;99.90;;;;;;5081082;28;20580;-78
2022/08/07 02:40:37;;;;;;;5.65;4.13;;;13.70;99.90;;;;;;5081144;28;20476;-78
2022/08/07 02:43:05;;;;;;;5.68;5.10;;;13.60;99.90;;;;;;5081251;28;20044;-78
2022/08/07 02:45:33;;;;;;;7.03;5.40;;;13.70;99.90;;;;;;5081898;28;20036;-78
2022/08/07 02:47:59;;;;;;;4.82;4.35;;;13.70;99.90;;;;;;5062587;28;20138;-78
2022/08/07 02:50:25;;;;;;;4.90;3.63;;;13.70;99.90;;;;;;5081030;28;20109;-78
2022/08/07 02:52:58;;;;;;;5.07;3.38;;;13.60;99.90;;;;;;5081154;28;20391;-78
2022/08/07 02:55:30;;;;;;;5.95;4.68;;;13.70;99.90;;;;;;5080612;28;20044;-78
2022/08/07 02:58:01;;;;;;;5.28;4.68;;;13.60;99.90;;;;;;5081099;28;20075;-78
2022/08/07 03:00:28;;;;;;;7.57;4.00;;;13.60;99.90;;;;;;5081242;28;20043;-78
2022/08/07 03:02:54;;;;;;;5.22;4.72;;;13.60;99.90;;;;;;5080119;28;20776;-78
2022/08/07 03:05:20;;;;;;;5.43;4.20;;;13.60;99.90;;;;;;5080652;28;20505;-78
2022/08/07 03:07:46;;;;;;;3.97;3.58;;;13.60;99.90;;;;;;5080681;28;20133;-78
2022/08/07 03:10:13;;;;;;;7.15;4.00;;;13.60;99.90;;;;;;5045233;28;20087;-78
2022/08/07 03:12:40;;;;;;;5.65;4.60;;;13.60;99.90;;;;;;5081058;28;20043;-78
2022/08/07 03:15:06;;;;;;;4.82;3.80;;;13.60;99.90;;;;;;5080500;28;20071;-78
2022/08/07 03:17:33;;;;;;;5.72;4.28;;;13.60;99.90;;;;;;5062339;28;20110;-77
2022/08/07 03:19:59;;;;;;;5.10;4.35;;;13.60;99.90;;;;;;5062163;28;20044;-78
2022/08/07 03:22:27;;;;;;;5.07;4.60;;;13.70;99.90;;;;;;5080479;28;20045;-78
2022/08/07 03:24:52;;;;;;;3.95;3.38;;;13.70;99.90;;;;;;5080443;28;20100;-78
2022/08/07 03:27:18;;;;;;;5.25;3.85;;;13.60;99.90;;;;;;5080569;28;20541;-78
2022/08/07 03:29:49;;;;;;;4.97;3.42;;;13.70;99.90;;;;;;5080333;28;20040;-78
2022/08/07 03:32:17;;;;;;;4.63;4.07;;;13.60;99.90;;;;;;5061325;28;20048;-78
2022/08/07 03:34:47;;;;;;;5.88;4.43;;;13.70;99.90;;;;;;5080502;28;20039;-77
2022/08/07 03:37:15;;;;;;;6.95;5.07;;;13.70;99.90;;;;;;5080318;28;20044;-78
2022/08/07 03:39:41;;;;;;;7.25;4.22;;;13.70;99.90;;;;;;5062126;28;20375;-78
2022/08/07 03:42:07;;;;;;;7.45;4.90;;;13.70;99.90;;;;;;5080330;28;20459;-78
2022/08/07 03:44:35;;;;;;;4.18;3.78;;;13.70;99.90;;;;;;5080034;28;20337;-78
2022/08/07 03:47:01;;;;;;;4.97;3.45;;;13.60;99.90;;;;;;5079199;28;20043;-78
2022/08/07 03:49:28;;;;;;;7.60;3.85;;;13.60;99.90;;;;;;5080238;28;20044;-78
2022/08/07 03:51:55;;;;;;;5.70;4.18;;;13.60;99.90;;;;;;5080089;28;20594;-78
2022/08/07 03:54:21;;;;;;;5.93;4.57;;;13.60;99.90;;;;;;5079746;28;20449;-77
2022/08/07 03:56:48;;;;;;;4.65;3.75;;;13.60;99.90;;;;;;5061293;28;20048;-78
2022/08/07 03:59:14;;;;;;;6.20;4.07;;;13.50;99.90;;;;;;5079651;28;20343;-78
2022/08/07 04:01:42;;;;;;;4.22;3.83;;;13.50;99.90;;;;;;5078529;28;20040;-78
2022/08/07 04:04:08;;;;;;;5.47;4.07;;;13.50;99.90;;;;;;5061215;28;20051;-77
2022/08/07 04:06:36;;;;;;;5.63;4.75;;;13.50;99.90;;;;;;5079675;28;20040;-78
2022/08/07 04:09:02;;;;;;;4.38;3.60;;;13.50;99.90;;;;;;5079645;28;20353;-78
2022/08/07 04:11:30;;;;;;;7.13;4.03;;;13.50;99.90;;;;;;5061007;28;20043;-78
2022/08/07 04:13:57;;;;;;;5.30;4.05;;;13.50;99.90;;;;;;5079320;28;20036;-78
2022/08/07 04:16:23;;;;;;;7.47;4.70;;;13.50;99.90;;;;;;5078612;28;20055;-78
2022/08/07 04:18:48;;;;;;;3.78;3.20;;;13.50;99.90;;;;;;5079119;28;20040;-78
2022/08/07 04:21:14;;;;;;;6.03;3.28;;;13.50;99.90;;;;;;5079508;28;20385;-78
2022/08/07 04:23:40;;;;;;;4.93;4.43;;;13.40;99.90;;;;;;5079728;28;20101;-77
2022/08/07 04:26:06;;;;;;;5.72;4.70;;;13.40;99.90;;;;;;5078888;28;20625;-78
2022/08/07 04:28:32;;;;;;;5.95;3.80;;;13.40;99.90;;;;;;5079002;28;20032;-78
2022/08/07 04:30:59;;;;;;;5.70;3.95;;;13.40;99.90;;;;;;5078332;28;20055;-78
2022/08/07 04:33:25;;;;;;;6.65;4.72;;;13.40;99.90;;;;;;5078880;28;20078;-78
2022/08/07 04:35:52;;;;;;;5.97;4.65;;;13.40;99.90;;;;;;5079186;28;20048;-78
2022/08/07 04:38:18;;;;;;;6.03;4.30;;;13.40;99.90;;;;;;5078750;28;20347;-78
2022/08/07 04:40:45;;;;;;;4.78;4.35;;;13.40;99.90;;;;;;5078520;28;20040;-78
2022/08/07 04:43:13;;;;;;;5.53;4.22;;;13.40;99.90;;;;;;5079590;28;20119;-78
2022/08/07 04:46:07;;;;;;;10.73;5.95;;;13.40;99.90;;;;;;5061054;28;20028;-77
2022/08/07 04:49:02;;;;;;;6.88;4.63;;;13.40;99.90;;;;;;5044076;28;20158;-78
2022/08/07 04:51:42;;;;;;;5.90;5.10;;;13.40;99.90;;;;;;5060447;28;20125;-77
2022/08/07 04:54:27;;;;;;;6.75;4.95;;;13.40;99.90;;;;;;5078818;28;20046;-78
2022/08/07 04:57:24;;;;;;;5.30;4.15;;;13.50;99.90;;;;;;5060449;28;20054;-78
2022/08/07 05:00:11;;;;;;;5.35;3.70;;;13.50;99.90;;;;;;5078433;28;20099;-78
2022/08/07 05:02:55;;;;;;;5.95;4.03;;;13.60;99.90;;;;;;5077364;28;20084;-78
2022/08/07 05:05:28;;;;;;;6.00;3.95;;;13.60;99.90;;;;;;5060332;28;20047;-78
2022/08/07 05:08:16;;;;;;;8.52;4.78;;;13.70;99.90;;;;;;5059751;28;20544;-78
2022/08/07 05:11:03;;;;;;;10.20;5.13;;;13.70;99.90;;;;;;5079238;28;20077;-78
2022/08/07 05:13:37;;;;;;;4.38;4.00;;;13.70;99.90;;;;;;5078435;28;20044;-78
2022/08/07 05:16:08;;;;;;;5.07;4.55;;;13.70;99.90;;;;;;5077265;28;20032;-78
2022/08/07 05:18:39;;;;;;;4.60;4.03;;;13.80;99.90;;;;;;5060582;28;20255;-78
2022/08/07 05:21:08;;;;;;;5.65;4.72;;;13.80;99.90;;;;;;5060263;28;20478;-78
2022/08/07 05:23:44;;;;;;;6.20;4.28;;;13.90;99.90;;;;;;5078070;28;20040;-77
2022/08/07 05:26:13;;;;;;;4.97;3.88;;;13.90;99.90;;;;;;5060151;28;20369;-78
2022/08/07 05:28:41;;;;;;;6.45;5.13;;;13.90;99.90;;;;;;5060269;28;20051;-78
2022/08/07 05:31:09;;;;;;;6.30;4.85;;;13.90;99.90;;;;;;5042766;28;20043;-78
2022/08/07 05:33:36;;;;;;;4.40;3.65;;;14.00;99.90;;;;;;5078114;28;20247;-77
2022/08/07 05:36:05;;;;;;;4.25;3.85;;;14.00;99.90;;;;;;5078225;28;20040;-78
2022/08/07 05:38:31;;;;;;;5.10;4.28;;;14.10;99.90;;;;;;5078252;28;20025;-77
2022/08/07 05:40:57;;;;;;;5.20;3.55;;;14.10;99.90;;;;;;5059534;28;20044;-77
2022/08/07 05:43:23;;;;;;;6.05;3.72;;;14.20;99.90;;;;;;5078000;28;20055;-78
2022/08/07 05:45:50;;;;;;;5.63;4.13;;;14.20;99.90;;;;;;5077194;28;20105;-78
2022/08/07 05:48:17;;;;;;;4.60;3.05;;;14.20;99.90;;;;;;5078087;28;20133;-78
2022/08/07 05:50:44;;;;;;;4.38;3.97;;;14.20;99.90;;;;;;5062515;28;20048;-78
2022/08/07 05:53:10;;;;;;;3.80;3.50;;;14.20;99.90;;;;;;5063797;28;20044;-77
2022/08/07 05:55:36;;;;;;;5.15;3.35;;;14.30;99.90;;;;;;5081786;28;20055;-77
2022/08/07 05:58:04;;;;;;;4.22;3.83;;;14.40;99.90;;;;;;5063806;28;20501;-78
2022/08/07 06:00:32;;;;;;;4.13;3.35;;;14.40;99.90;;;;;;5081769;28;20058;-78
2022/08/07 06:03:00;;;;;;;5.22;4.78;;;14.50;99.90;;;;;;5080490;28;20036;-78
2022/08/07 06:05:27;;;;;;;4.28;3.50;;;14.50;99.90;;;;;;5081779;28;20538;-77
2022/08/07 06:07:54;;;;;;;5.15;3.45;;;14.60;99.90;;;;;;5081370;28;20044;-78
2022/08/07 06:10:21;;;;;;;5.75;3.72;;;14.70;99.90;;;;;;5063489;28;20044;-78
2022/08/07 06:12:47;;;;;;;7.95;4.05;;;14.70;99.90;;;;;;5081985;28;20068;-78
2022/08/07 06:15:15;;;;;;;3.45;3.20;;;14.80;99.90;;;;;;5082452;28;20052;-78
2022/08/07 06:17:42;;;;;;;3.05;2.67;;;14.80;99.90;;;;;;5062761;28;20282;-78
2022/08/07 06:20:12;;;;;;;7.78;4.13;;;14.80;99.90;;;;;;5081538;28;20450;-78
2022/08/07 06:22:39;;;;;;;5.05;3.63;;;14.90;99.90;;;;;;5063032;28;20066;-78
2022/08/07 06:25:05;;;;;;;3.97;3.30;;;14.90;99.90;;;;;;5046253;28;20530;-78
2022/08/07 06:27:31;;;;;;;4.25;3.42;;;15.00;99.90;;;;;;5081403;28;20070;-78
2022/08/07 06:29:57;;;;;;;4.05;3.50;;;15.00;99.90;;;;;;5081318;28;20047;-78
2022/08/07 06:32:22;;;;;;;5.30;3.88;;;15.10;99.90;;;;;;5062099;28;20595;-78
2022/08/07 06:34:48;;;;;;;5.22;4.72;;;15.10;99.90;;;;;;5081435;28;20059;-78
2022/08/07 06:37:13;;;;;;;5.15;3.70;;;15.10;99.90;;;;;;5081443;28;20105;-78
2022/08/07 06:39:39;;;;;;;3.53;3.05;;;15.20;99.90;;;;;;5081434;28;20082;-78
2022/08/07 06:42:14;;;;;;;6.07;4.00;;;15.20;99.90;;;;;;5080884;28;20526;-78
2022/08/07 06:44:42;;;;;;;3.22;2.63;;;15.30;99.90;;;;;;5080997;28;20135;-77
2022/08/07 06:47:08;;;;;;;4.40;3.58;;;15.30;99.90;;;;;;5080276;28;20062;-78
2022/08/07 06:49:34;;;;;;;4.90;3.22;;;15.40;99.90;;;;;;5062672;28;20490;-78
2022/08/07 06:52:01;;;;;;;5.40;2.60;;;15.50;99.90;;;;;;5080946;28;20047;-78
2022/08/07 06:54:36;;;;;;;4.00;3.70;;;15.50;99.90;;;;;;5080432;28;20494;-78
2022/08/07 06:57:07;;;;;;;4.57;2.65;;;15.50;99.90;;;;;;5080622;28;20131;-78
2022/08/07 06:59:37;;;;;;;3.28;2.47;;;15.60;99.90;;;;;;5080832;28;20052;-78
2022/08/07 07:02:07;;;;;;;4.43;2.90;;;15.60;99.90;;;;;;5061679;28;20378;-78
2022/08/07 07:04:32;;;;;;;3.00;2.60;;;15.70;99.90;;;;;;5080502;28;20036;-78
2022/08/07 07:06:58;;;;;;;4.57;3.13;;;15.70;99.90;;;;;;5059040;28;20124;-78
2022/08/07 07:09:30;;;;;;;6.35;3.03;;;15.80;99.90;;;;;;5059504;28;20052;-78
2022/08/07 07:12:05;;;;;;;5.68;4.25;;;15.90;99.90;;;;;;5060294;28;20132;-78
2022/08/07 07:14:38;;;;;;;5.10;2.90;;;15.90;99.90;;;;;;5060536;28;20595;-78
2022/08/07 07:17:10;;;;;;;5.32;4.40;;;16.00;99.90;;;;;;5059175;28;20029;-78
2022/08/07 07:19:45;;;;;;;3.83;3.38;;;16.00;99.90;;;;;;5059060;28;20060;-78
2022/08/07 07:22:11;;;;;;;2.60;2.20;;;16.00;99.90;;;;;;5060069;28;20056;-78
2022/08/07 07:24:39;;;;;;;5.13;3.63;;;16.10;99.90;;;;;;5058437;28;20530;-78
2022/08/07 07:27:07;;;;;;;4.30;3.75;;;16.20;99.90;;;;;;5060293;28;20048;-78
2022/08/07 07:29:37;;;;;;;6.07;3.25;;;16.20;99.90;;;;;;5058387;28;20151;-78
2022/08/07 07:32:06;;;;;;;7.07;3.80;;;16.30;99.90;;;;;;5059029;28;20037;-78
2022/08/07 07:34:35;;;;;;;3.80;3.15;;;16.30;99.90;;;;;;5058459;28;20063;-78
2022/08/07 07:37:02;;;;;;;4.47;2.78;;;16.40;99.90;;;;;;5060034;28;20554;-78
2022/08/07 07:39:30;;;;;;;6.95;2.42;;;16.40;99.90;;;;;;5059921;28;20036;-78
2022/08/07 07:41:56;;;;;;;4.93;2.50;;;16.40;99.90;;;;;;5059387;28;20119;-78
2022/08/07 07:44:23;;;;;;;3.67;3.38;;;16.40;99.90;;;;;;5058146;28;20036;-78
2022/08/07 07:46:50;;;;;;;2.88;2.25;;;16.50;99.90;;;;;;5059187;28;20046;-78
2022/08/07 07:49:21;;;;;;;5.38;2.95;;;16.50;99.90;;;;;;5042067;28;20048;-78
2022/08/07 07:51:48;;;;;;;3.80;2.90;;;16.50;99.90;;;;;;5042174;28;20053;-78
2022/08/07 07:54:17;;;;;;;3.40;3.05;;;16.60;99.90;;;;;;5059790;28;20438;-78
2022/08/07 07:56:44;;;;;;;4.05;2.60;;;16.60;99.90;;;;;;5059828;28;20048;-78
2022/08/07 07:59:12;;;;;;;4.05;2.45;;;16.60;99.90;;;;;;5058344;28;20044;-78
2022/08/07 08:01:43;;;;;;;5.78;2.75;;;16.60;99.90;;;;;;5058259;28;20052;-78
2022/08/07 08:04:11;;;;;;;5.22;2.95;;;16.60;99.90;;;;;;5059365;28;20041;-79
2022/08/07 08:06:42;;;;;;;3.67;2.72;;;16.70;99.90;;;;;;5060735;28;20044;-78
2022/08/07 08:09:08;;;;;;;2.88;2.53;;;16.80;99.90;;;;;;5061164;28;20130;-78
2022/08/07 08:11:34;;;;;;;3.33;2.50;;;16.80;99.90;;;;;;5079335;28;20051;-78
2022/08/07 08:14:00;;;;;;;5.40;3.17;;;16.80;99.90;;;;;;5078561;28;20123;-78
2022/08/07 08:16:47;;;;;;;5.05;2.70;;;16.80;99.90;;;;;;5078162;28;20122;-78
2022/08/07 08:19:16;;;;;;;3.85;2.50;;;16.80;99.90;;;;;;5079178;28;20044;-78
2022/08/07 08:27:32;;;;;;;3.58;2.70;;;17.00;99.90;;;;;;5079502;28;20075;-79
2022/08/07 08:30:02;;;;;;;;;;;17.00;99.90;;;;;;5079697;28;20233;-79
2022/08/07 08:32:31;;;;;;;10.98;3.60;;;17.10;99.90;;;;;;5078437;28;19970;-78
2022/08/07 08:34:58;;;;;;;2.17;1.85;;;17.10;99.90;;;;;;5061037;28;20101;-78
2022/08/07 08:37:27;;;;;;;2.95;2.03;;;17.20;99.90;;;;;;5079523;28;20047;-78
2022/08/07 08:40:03;;;;;;;2.92;2.33;;;17.20;99.90;;;;;;5061432;28;20419;-78
2022/08/07 08:42:53;;;;;;;3.05;2.08;;;17.20;99.90;;;;;;5043598;28;20044;-78
2022/08/07 08:45:19;;;;;;;4.43;2.22;;;17.30;99.90;;;;;;5077842;28;20588;-78
2022/08/07 08:48:11;;;;;;;3.00;2.70;;;17.30;99.90;;;;;;5078417;28;20040;-78
2022/08/07 08:50:43;;;;;;;4.80;2.60;;;17.40;99.90;;;;;;5078405;28;20044;-78
2022/08/07 08:53:21;;;;;;;4.60;2.70;;;17.40;99.90;;;;;;5078611;28;20298;-78
2022/08/07 08:55:49;;;;;;;3.42;2.92;;;17.50;99.90;;;;;;5060568;28;20494;-78
2022/08/07 08:58:47;;;;;;;5.30;2.53;;;17.60;99.90;;;;;;5060217;28;20048;-78
2022/08/07 09:01:23;;;;;;;2.35;2.13;;;17.70;99.90;;;;;;5077282;28;20044;-78
2022/08/07 09:04:17;;;;;;;3.58;2.40;;;17.80;99.90;;;;;;5060260;28;20502;-78
2022/08/07 09:06:54;;;;;;;2.33;2.13;;;17.80;99.90;;;;;;5078165;28;20398;-78
2022/08/07 09:09:42;;;;;;;5.55;2.60;;;17.80;99.90;;;;;;5060089;28;20048;-79
2022/08/07 09:12:36;;;;;;;2.25;1.98;;;17.70;99.90;;;;;;5060274;28;20101;-78
2022/08/07 09:15:16;;;;;;;3.47;3.17;;;17.70;99.90;;;;;;5060906;28;20039;-79
2022/08/07 09:18:00;;;;;;;15.10;2.55;;;17.70;99.90;;;;;;5059476;28;20044;-78
2022/08/07 09:20:58;;;;;;;3.80;2.28;;;17.80;99.90;;;;;;5060543;28;20623;-78
2022/08/07 09:23:47;;;;;;;2.60;1.88;;;17.90;99.90;;;;;;4972077;28;20157;-78
2022/08/07 09:26:30;;;;;;;3.10;2.08;;;17.90;99.90;;;;;;5042647;28;20048;-79
2022/08/07 09:29:11;;;;;;;;;;;17.90;99.90;;;;;;5061151;28;20595;-78
2022/08/07 09:31:54;;;;;;;2.40;1.67;;;17.90;99.90;;;;;;5077303;28;20363;-78
2022/08/07 09:34:24;;;;;;;;;;;18.00;99.90;;;;;;5078298;28;20040;-78
2022/08/07 09:36:59;;;;;;;2.97;2.10;;;18.00;99.90;;;;;;5077920;28;19920;-79
2022/08/07 09:39:54;;;;;;;4.28;2.35;;;18.10;99.90;;;;;;5078342;28;20562;-79
2022/08/07 09:42:51;;;;;;;3.97;2.20;;;18.30;99.90;;;;;;5056153;28;20098;-79
2022/08/07 09:45:31;;;;;;;3.58;2.50;;;18.20;99.90;;;;;;5077041;28;20055;-79
2022/08/07 09:48:40;;;;;;;3.28;2.03;;;18.20;99.90;;;;;;5078122;28;20047;-79
2022/08/07 09:51:44;;;;;;;5.85;2.10;;;18.10;99.90;;;;;;4959491;28;20051;-79
2022/08/07 09:54:21;;;;;;;3.00;2.00;;;18.10;99.90;;;;;;4943388;28;20382;-78
2022/08/07 09:57:37;;;;;;;3.00;2.20;;;18.10;99.90;;;;;;5061654;28;20394;-78
2022/08/07 10:00:13;;;;;;;4.07;2.78;;;18.20;99.90;;;;;;4958566;28;20125;-79
2022/08/07 10:02:38;;;;;;;3.80;2.40;;;18.30;99.90;;;;;;4975561;28;20133;-79
2022/08/07 10:05:49;;;;;;;3.38;2.15;;;18.40;99.90;;;;;;5038134;28;20533;-78
2022/08/07 10:08:33;;;;;;;5.25;2.60;;;18.40;99.90;;;;;;5059674;28;20418;-79
2022/08/07 10:11:10;;;;;;;2.72;1.25;;;18.50;99.90;;;;;;5042999;28;20135;-78
2022/08/07 10:14:12;;;;;;;4.40;2.42;;;18.40;99.90;;;;;;5077716;28;20124;-78
2022/08/07 10:17:11;;;;;;;3.95;2.20;;;18.40;99.90;;;;;;5059385;28;20380;-79
2022/08/07 10:20:07;;;;;;;2.17;1.67;;;18.40;99.90;;;;;;5077953;28;20048;-79
2022/08/07 10:23:05;;;;;;;2.78;2.13;;;18.40;99.90;;;;;;5077210;28;20482;-79
2022/08/07 10:25:37;;;;;;;1.77;1.42;;;18.40;99.90;;;;;;5041878;28;20036;-79
2022/08/07 10:28:22;;;;;;;1.75;1.63;;;18.50;99.90;;;;;;5077131;28;20264;-79
2022/08/07 10:31:18;;;;;;;2.45;1.55;;;18.50;99.90;;;;;;5076315;28;20519;-79
2022/08/07 10:34:06;;;;;;;2.35;1.70;;;18.50;99.90;;;;;;5059150;28;20048;-79
2022/08/07 10:37:08;;;;;;;1.90;1.67;;;18.50;99.90;;;;;;5061429;28;20055;-79
2022/08/07 10:40:01;;;;;;;6.20;1.75;;;18.50;99.90;;;;;;5081133;28;20048;-78
2022/08/07 10:42:34;;;;;;;1.63;1.02;;;18.50;99.90;;;;;;5063516;28;20051;-79
2022/08/07 10:45:43;;;;;;;2.08;1.38;;;18.50;99.90;;;;;;5080615;28;20643;-79
2022/08/07 10:48:23;;;;;;;2.05;1.48;;;18.50;99.90;;;;;;4962546;28;20044;-79
2022/08/07 10:51:01;;;;;;;2.25;1.58;;;18.60;99.90;;;;;;4979049;28;20466;-79
2022/08/07 10:53:29;;;;;;;4.10;2.17;;;18.60;99.90;;;;;;5029955;28;20040;-79
2022/08/07 10:56:12;;;;;;;2.80;2.03;;;18.60;99.90;;;;;;5080623;28;20040;-79
2022/08/07 10:58:57;;;;;;;1.40;1.20;;;18.60;99.90;;;;;;5046231;28;20497;-79
2022/08/07 11:01:47;;;;;;;1.50;1.15;;;18.60;99.90;;;;;;5080100;28;20359;-79
2022/08/07 11:04:43;;;;;;;3.60;2.08;;;18.60;99.90;;;;;;5081126;28;20131;-79
2022/08/07 11:07:17;;;;;;;2.05;1.15;;;18.50;99.90;;;;;;5062489;28;20091;-79
2022/08/07 11:09:53;;;;;;;2.50;1.13;;;18.60;99.90;;;;;;5080603;28;20040;-79
2022/08/07 11:12:27;;;;;;;1.17;0.95;;;18.60;99.90;;;;;;5080365;28;20379;-79
2022/08/07 11:14:57;;;;;;;1.00;0.90;;;18.60;99.90;;;;;;5080013;28;20044;-79
2022/08/07 11:17:55;;;;;;;1.33;1.02;;;18.70;99.90;;;;;;5062859;28;20075;-79
2022/08/07 11:20:36;;;;;;;1.00;0.85;;;18.80;99.90;;;;;;5080744;28;20048;-78
2022/08/07 11:23:30;;;;;;;2.83;0.90;;;18.80;99.90;;;;;;5062757;28;20079;-79
2022/08/07 11:26:12;;;;;;;2.95;1.45;;;18.80;99.90;;;;;;5061458;28;20047;-79
2022/08/07 11:28:46;;;;;;;1.88;1.05;;;18.80;99.90;;;;;;5080371;28;20046;-79
2022/08/07 11:31:33;;;;;;;0.60;0.55;;;18.80;99.90;;;;;;5061010;28;20044;-78
2022/08/07 11:34:16;;;;;;;0.98;0.85;;;18.80;99.90;;;;;;5080556;28;20044;-78
2022/08/07 11:37:01;;;;;;;1.60;1.50;;;18.90;99.90;;;;;;5062293;28;20525;-78
2022/08/07 11:40:01;;;;;;;1.02;0.60;;;18.90;99.90;;;;;;5061722;28;20052;-78
2022/08/07 11:42:26;;;;;;;0.50;0.50;;;19.00;99.90;;;;;;5062287;28;20245;-78
2022/08/07 11:45:08;;;;;;;1.10;0.70;;;19.10;99.90;;;;;;5078680;28;20093;-78
2022/08/07 11:47:40;;;;;;;1.30;1.00;;;19.10;99.90;;;;;;5079299;28;20079;-78
2022/08/07 11:50:33;;;;;;;0.70;0.70;;;19.10;99.90;;;;;;5061606;28;20131;-78
2022/08/07 11:53:02;;;;;;;0.60;0.60;;;19.10;99.90;;;;;;5079747;28;20048;-78
2022/08/07 11:55:49;;;;;;;1.13;0.60;;;19.20;99.90;;;;;;5079734;28;20107;-78
2022/08/07 11:58:32;;;;;;;0.80;0.77;;;19.20;99.90;;;;;;5061558;28;20348;-79
2022/08/07 12:01:19;;;;;;;1.95;0.80;;;19.20;99.90;;;;;;5078950;28;20044;-79
2022/08/07 12:04:26;;;;;;;0.60;0.50;;;19.20;99.90;;;;;;5079777;28;20056;-79
2022/08/07 12:07:05;;;;;;;0.73;0.73;;;19.40;99.90;;;;;;5079492;28;20126;-79
2022/08/07 12:09:55;;;;;;;1.35;1.02;;;19.40;99.90;;;;;;5079662;28;20485;-78
2022/08/07 12:12:33;;;;;;;1.38;0.90;;;19.50;99.90;;;;;;5078688;28;20098;-78
2022/08/07 12:15:11;;;;;;;1.02;0.93;;;19.50;99.90;;;;;;5078149;28;20063;-78
2022/08/07 12:17:46;;;;;;;0.98;0.93;;;19.50;99.90;;;;;;5061564;28;20040;-78
2022/08/07 12:20:29;;;;;;;1.60;1.13;;;19.60;99.90;;;;;;5061444;28;20048;-79
2022/08/07 12:23:27;;;;;;;3.65;1.35;;;19.60;99.90;;;;;;5079222;28;20107;-79
2022/08/07 12:26:08;;;;;;;1.23;1.13;;;19.70;99.90;;;;;;5061072;28;20409;-79
2022/08/07 12:29:11;;;;;;;1.38;1.27;;;19.70;99.90;;;;;;5044608;28;20080;-79
2022/08/07 12:31:46;;;;;;;1.98;1.42;;;19.80;99.90;;;;;;5078110;28;20517;-79
2022/08/07 12:34:13;;;;;;;1.15;1.10;;;19.90;99.90;;;;;;5060809;28;20121;-79
2022/08/07 12:36:41;;;;;;;1.77;1.58;;;19.90;99.90;;;;;;5079469;28;20052;-79
2022/08/07 12:39:07;;;;;;;1.77;1.33;;;20.00;99.90;;;;;;5061665;28;20394;-79
2022/08/07 12:41:38;;;;;;;1.30;1.20;;;20.10;99.90;;;;;;5061025;28;20351;-79
2022/08/07 12:44:06;;;;;;;2.75;2.00;;;20.10;99.90;;;;;;5079090;28;20115;-79
2022/08/07 12:47:12;;;;;;;3.67;1.73;;;20.20;99.90;;;;;;5078030;28;20035;-79
2022/08/07 12:49:57;;;;;;;1.67;1.48;;;20.10;99.90;;;;;;5079297;28;20671;-78
2022/08/07 12:52:34;;;;;;;1.35;1.25;;;20.20;99.90;;;;;;5078596;28;20063;-78
2022/08/07 12:55:05;;;;;;;3.03;1.85;;;20.10;99.90;;;;;;5060463;28;20534;-78
2022/08/07 12:57:33;;;;;;;2.25;1.80;;;20.20;99.90;;;;;;5078708;28;20521;-79
2022/08/07 13:00:04;;;;;;;2.03;1.58;;;20.30;99.90;;;;;;5077331;28;20056;-79
2022/08/07 13:02:55;;;;;;;5.07;1.80;;;20.20;99.90;;;;;;5078377;28;20146;-79
2022/08/07 13:05:39;;;;;;;4.28;1.38;;;20.30;99.90;;;;;;5060242;28;20055;-79
2022/08/07 13:08:19;;;;;;;5.25;1.95;;;20.30;99.90;;;;;;5060539;28;20490;-79
2022/08/07 13:11:02;;;;;;;6.45;2.22;;;20.20;99.90;;;;;;5078793;28;20125;-79
2022/08/07 13:14:06;;;;;;;1.70;1.60;;;20.30;99.90;;;;;;5078508;28;20096;-79
2022/08/07 13:16:55;;;;;;;2.65;1.75;;;20.30;99.90;;;;;;5038253;28;20344;-79
2022/08/07 13:19:23;;;;;;;2.42;1.83;;;20.40;99.90;;;;;;5078274;28;20044;-79
2022/08/07 13:21:58;;;;;;;4.78;2.53;;;20.40;99.90;;;;;;5078370;28;20126;-79
2022/08/07 13:24:41;;;;;;;1.65;1.50;;;20.40;99.90;;;;;;5078459;28;20044;-79
2022/08/07 13:27:17;;;;;;;3.70;2.00;;;20.40;99.90;;;;;;5078758;28;20078;-79